createdAt,value
2018-12-06T00:02:15.494Z,12.55
2018-12-06T00:04:43.832Z,11.25
2018-12-06T00:07:12.226Z,11.30
2018-12-06T00:09:40.637Z,12.30
2018-12-06T00:12:09.717Z,11.70
2018-12-06T00:14:38.100Z,13.05
2018-12-06T00:17:06.447Z,11.97
2018-12-06T00:19:34.853Z,12.30
2018-12-06T00:22:03.293Z,10.90
2018-12-06T00:24:31.763Z,13.83
2018-12-06T00:27:01.349Z,12.05
2018-12-06T00:29:29.767Z,12.03
2018-12-06T00:31:58.142Z,11.40
2018-12-06T00:34:26.517Z,12.28
2018-12-06T00:36:54.963Z,12.55
2018-12-06T00:39:23.374Z,12.20
2018-12-06T00:41:51.727Z,14.73
2018-12-06T00:44:20.094Z,13.53
2018-12-06T00:46:48.478Z,12.65
2018-12-06T00:49:16.916Z,12.00
2018-12-06T00:51:45.285Z,11.38
2018-12-06T00:54:13.833Z,11.57
2018-12-06T00:56:42.211Z,12.18
2018-12-06T00:59:10.654Z,13.10
2018-12-06T01:01:39.233Z,11.40
2018-12-06T01:04:07.803Z,12.65
2018-12-06T01:06:36.328Z,12.47
2018-12-06T01:09:05.875Z,12.45
2018-12-06T01:11:34.257Z,12.13
2018-12-06T01:14:02.737Z,14.68
2018-12-06T01:16:31.188Z,11.48
2018-12-06T01:18:59.697Z,12.33
2018-12-06T01:21:28.097Z,12.25
2018-12-06T01:23:56.443Z,13.83
2018-12-06T01:26:25.143Z,11.65
2018-12-06T01:28:53.521Z,13.38
2018-12-06T01:31:21.993Z,12.90
2018-12-06T01:33:50.401Z,13.83
2018-12-06T01:36:18.835Z,17.10
2018-12-06T01:38:47.182Z,13.00
2018-12-06T01:41:15.650Z,13.32
2018-12-06T01:43:43.994Z,14.05
2018-12-06T01:46:12.356Z,13.20
2018-12-06T01:48:41.205Z,13.15
2018-12-06T01:51:09.675Z,14.00
2018-12-06T01:53:38.012Z,13.08
2018-12-06T01:56:06.399Z,12.90
2018-12-06T01:58:34.760Z,12.98
2018-12-06T02:01:03.116Z,12.78
2018-12-06T02:03:31.493Z,12.28
2018-12-06T02:05:59.946Z,14.20
2018-12-06T02:08:28.306Z,11.80
2018-12-06T02:10:56.659Z,13.53
2018-12-06T02:13:25.049Z,13.72
2018-12-06T02:15:53.428Z,14.05
2018-12-06T02:18:21.860Z,12.82
2018-12-06T02:20:50.182Z,15.38
2018-12-06T02:23:18.612Z,13.55
2018-12-06T02:25:46.980Z,13.83
2018-12-06T02:28:19.468Z,12.63
2018-12-06T02:30:48.193Z,12.65
2018-12-06T02:33:17.246Z,12.95
2018-12-06T02:35:45.708Z,14.23
2018-12-06T02:38:14.080Z,14.58
2018-12-06T02:40:42.415Z,13.98
2018-12-06T02:43:11.113Z,14.13
2018-12-06T02:45:39.698Z,14.53
2018-12-06T02:48:08.035Z,14.35
2018-12-06T02:50:36.371Z,15.15
2018-12-06T02:53:04.745Z,14.30
2018-12-06T02:55:33.146Z,13.53
2018-12-06T02:58:01.459Z,13.10
2018-12-06T03:00:29.869Z,14.85
2018-12-06T03:02:58.202Z,13.13
2018-12-06T03:05:26.587Z,14.23
2018-12-06T03:07:55.103Z,13.50
2018-12-06T03:10:24.119Z,14.50
2018-12-06T03:12:52.444Z,13.60
2018-12-06T03:15:21.114Z,13.58
2018-12-06T03:17:49.798Z,12.95
2018-12-06T03:20:18.701Z,14.47
2018-12-06T03:22:47.302Z,12.70
2018-12-06T03:25:16.161Z,13.10
2018-12-06T03:27:44.576Z,12.88
2018-12-06T03:30:13.016Z,13.00
2018-12-06T03:32:41.468Z,13.98
2018-12-06T03:35:09.952Z,14.68
2018-12-06T03:37:38.559Z,14.60
2018-12-06T03:40:07.379Z,13.75
2018-12-06T03:42:35.798Z,15.50
2018-12-06T03:45:05.205Z,14.33
2018-12-06T03:47:33.634Z,14.00
2018-12-06T03:50:01.945Z,14.28
2018-12-06T03:52:30.311Z,15.65
2018-12-06T03:54:58.682Z,15.32
2018-12-06T03:57:27.113Z,14.03
2018-12-06T03:59:55.439Z,13.60
2018-12-06T04:02:24.536Z,14.38
2018-12-06T04:04:52.896Z,14.10
2018-12-06T04:07:21.689Z,15.32
2018-12-06T04:09:50.426Z,13.75
2018-12-06T04:12:19.117Z,14.38
2018-12-06T04:14:47.756Z,13.80
2018-12-06T04:17:16.432Z,14.28
2018-12-06T04:19:44.926Z,14.75
2018-12-06T04:22:13.340Z,14.70
2018-12-06T04:24:41.778Z,14.68
2018-12-06T04:27:10.110Z,15.05
2018-12-06T04:29:38.549Z,15.03
2018-12-06T04:32:06.910Z,14.55
2018-12-06T04:34:35.282Z,14.33
2018-12-06T04:37:03.681Z,16.45
2018-12-06T04:39:32.141Z,14.78
2018-12-06T04:42:00.605Z,16.82
2018-12-06T04:44:28.981Z,15.48
2018-12-06T04:46:57.367Z,16.45
2018-12-06T04:49:26.426Z,15.58
2018-12-06T04:51:55.307Z,16.55
2018-12-06T04:54:24.196Z,15.58
2018-12-06T04:56:53.006Z,16.05
2018-12-06T04:59:21.672Z,17.23
2018-12-06T05:01:50.239Z,17.80
2018-12-06T05:04:18.800Z,15.50
2018-12-06T05:06:47.245Z,16.17
2018-12-06T05:09:15.687Z,16.45
2018-12-06T05:11:44.075Z,17.50
2018-12-06T05:14:12.504Z,18.10
2018-12-06T05:16:41.132Z,18.40
2018-12-06T05:19:09.577Z,19.52
2018-12-06T05:21:37.935Z,20.30
2018-12-06T05:24:06.355Z,19.55
2018-12-06T05:26:34.889Z,17.62
2018-12-06T05:29:03.321Z,20.10
2018-12-06T05:31:31.691Z,18.23
2018-12-06T05:34:00.119Z,17.23
2018-12-06T05:36:28.726Z,22.60
2018-12-06T05:38:57.127Z,19.23
2018-12-06T05:41:26.171Z,20.05
2018-12-06T05:43:54.520Z,20.72
2018-12-06T05:46:22.877Z,21.70
2018-12-06T05:48:51.248Z,21.50
2018-12-06T05:51:19.620Z,22.35
2018-12-06T05:53:48.004Z,22.27
2018-12-06T05:56:17.627Z,22.82
2018-12-06T05:58:52.968Z,19.65
2018-12-06T06:01:23.065Z,21.85
2018-12-06T06:03:51.817Z,22.52
2018-12-06T06:06:20.144Z,21.85
2018-12-06T06:08:48.558Z,23.18
2018-12-06T06:11:16.945Z,24.72
2018-12-06T06:13:45.348Z,22.40
2018-12-06T06:16:13.701Z,23.42
2018-12-06T06:18:42.179Z,25.43
2018-12-06T06:21:10.600Z,24.10
2018-12-06T06:23:38.968Z,26.00
2018-12-06T06:26:07.316Z,24.77
2018-12-06T06:28:35.703Z,26.55
2018-12-06T06:31:04.142Z,26.70
2018-12-06T06:33:32.496Z,26.93
2018-12-06T06:36:00.866Z,26.15
2018-12-06T06:38:29.946Z,26.95
2018-12-06T06:40:58.341Z,25.85
2018-12-06T06:43:26.706Z,27.30
2018-12-06T06:45:55.128Z,27.20
2018-12-06T06:48:23.483Z,27.05
2018-12-06T06:50:51.964Z,26.40
2018-12-06T06:53:20.332Z,25.50
2018-12-06T06:55:48.754Z,29.20
2018-12-06T06:58:17.098Z,26.62
2018-12-06T07:00:45.474Z,26.95
2018-12-06T07:03:13.882Z,28.95
2018-12-06T07:05:42.295Z,28.00
2018-12-06T07:08:10.769Z,26.85
2018-12-06T07:10:39.173Z,26.17
2018-12-06T07:13:07.613Z,28.45
2018-12-06T07:15:35.996Z,26.80
2018-12-06T07:18:04.506Z,25.08
2018-12-06T07:20:33.127Z,27.20
2018-12-06T07:23:01.561Z,27.48
2018-12-06T07:25:30.012Z,27.27
2018-12-06T07:27:58.369Z,31.33
2018-12-06T07:30:26.852Z,28.98
2018-12-06T07:32:55.190Z,26.50
2018-12-06T07:35:23.792Z,27.35
2018-12-06T07:37:52.725Z,28.60
2018-12-06T07:40:21.062Z,27.32
2018-12-06T07:42:49.583Z,26.57
2018-12-06T07:45:18.017Z,30.43
2018-12-06T07:47:46.482Z,26.48
2018-12-06T07:50:15.060Z,27.40
2018-12-06T07:52:43.626Z,25.00
2018-12-06T07:55:12.070Z,27.27
2018-12-06T07:57:40.692Z,25.90
2018-12-06T08:00:09.571Z,24.87
2018-12-06T08:02:37.915Z,25.12
2018-12-06T08:05:07.157Z,25.55
2018-12-06T08:07:35.712Z,26.02
2018-12-06T08:10:04.644Z,27.95
2018-12-06T08:12:33.016Z,26.52
2018-12-06T08:15:01.388Z,26.60
2018-12-06T08:17:29.829Z,29.27
2018-12-06T08:19:58.208Z,29.40
2018-12-06T08:22:26.685Z,27.90
2018-12-06T08:24:55.254Z,30.90
2018-12-06T08:27:23.717Z,26.97
2018-12-06T08:29:52.079Z,27.77
2018-12-06T08:32:20.549Z,26.87
2018-12-06T08:34:48.944Z,28.35
2018-12-06T08:37:17.281Z,28.80
2018-12-06T08:39:45.768Z,28.40
2018-12-06T08:42:14.153Z,27.85
2018-12-06T08:44:42.550Z,30.32
2018-12-06T08:47:10.902Z,25.68
2018-12-06T08:49:39.291Z,26.57
2018-12-06T08:52:07.652Z,27.93
2018-12-06T08:54:35.992Z,27.27
2018-12-06T08:57:04.462Z,27.87
2018-12-06T08:59:32.842Z,29.32
2018-12-06T09:02:02.709Z,28.52
2018-12-06T09:04:31.087Z,28.50
2018-12-06T09:06:59.461Z,27.07
2018-12-06T09:09:27.832Z,29.98
2018-12-06T09:11:56.264Z,30.17
2018-12-06T09:14:25.239Z,30.00
2018-12-06T09:16:53.963Z,27.70
2018-12-06T09:19:22.681Z,30.40
2018-12-06T09:21:51.056Z,27.65
2018-12-06T09:24:19.486Z,27.93
2018-12-06T09:26:47.895Z,29.15
2018-12-06T09:29:16.239Z,27.30
2018-12-06T09:31:44.608Z,28.95
2018-12-06T09:34:12.950Z,25.35
2018-12-06T09:36:41.277Z,28.20
2018-12-06T09:39:10.235Z,27.15
2018-12-06T09:41:38.643Z,31.12
2018-12-06T09:44:07.107Z,27.10
2018-12-06T09:46:35.515Z,30.05
2018-12-06T09:49:04.862Z,30.77
2018-12-06T09:51:33.324Z,27.35
2018-12-06T09:54:01.987Z,29.85
2018-12-06T09:56:30.310Z,30.45
2018-12-06T09:58:58.789Z,29.50
2018-12-06T10:01:27.128Z,27.67
2018-12-06T10:03:55.838Z,28.52
2018-12-06T10:06:24.197Z,31.05
2018-12-06T10:08:52.656Z,28.65
2018-12-06T10:11:20.996Z,29.65
2018-12-06T10:13:49.460Z,27.48
2018-12-06T10:16:17.827Z,31.02
2018-12-06T10:18:46.224Z,31.00
2018-12-06T10:21:14.642Z,30.08
2018-12-06T10:23:43.069Z,29.45
2018-12-06T10:26:11.515Z,30.88
2018-12-06T10:28:41.661Z,30.45
2018-12-06T10:31:10.210Z,28.35
2018-12-06T10:33:38.796Z,28.85
2018-12-06T10:36:07.207Z,31.02
2018-12-06T10:38:35.586Z,28.80
2018-12-06T10:41:04.008Z,29.02
2018-12-06T10:43:32.439Z,30.08
2018-12-06T10:46:00.925Z,30.95
2018-12-06T10:48:29.300Z,29.98
2018-12-06T10:51:09.060Z,28.15
2018-12-06T10:53:37.591Z,30.95
2018-12-06T10:56:05.962Z,30.97
2018-12-06T10:58:34.367Z,31.33
2018-12-06T11:01:09.136Z,29.20
2018-12-06T11:03:43.035Z,28.67
2018-12-06T11:06:11.464Z,29.18
2018-12-06T11:08:39.793Z,26.62
2018-12-06T11:11:08.148Z,29.18
2018-12-06T11:13:36.513Z,28.65
2018-12-06T11:16:04.938Z,29.55
2018-12-06T11:18:33.388Z,29.67
2018-12-06T11:21:01.776Z,28.83
2018-12-06T11:23:30.129Z,29.20
2018-12-06T11:25:58.527Z,31.02
2018-12-06T11:28:26.882Z,29.30
2018-12-06T11:30:55.257Z,29.40
2018-12-06T11:33:23.779Z,32.63
2018-12-06T11:35:52.131Z,32.28
2018-12-06T11:38:20.533Z,36.03
2018-12-06T11:40:48.900Z,33.23
2018-12-06T11:43:17.245Z,32.60
2018-12-06T11:45:45.646Z,31.42
2018-12-06T11:48:13.988Z,33.48
2018-12-06T11:50:42.400Z,54.27
2018-12-06T11:53:10.862Z,31.93
2018-12-06T11:55:39.254Z,33.30
2018-12-06T11:58:11.443Z,34.13
2018-12-06T12:00:38.013Z,32.30
2018-12-06T12:03:06.524Z,31.60
2018-12-06T12:05:38.127Z,29.77
2018-12-06T12:08:06.480Z,31.60
2018-12-06T12:10:35.022Z,29.63
2018-12-06T12:13:03.531Z,31.75
2018-12-06T12:15:32.138Z,31.75
2018-12-06T12:18:00.572Z,29.98
2018-12-06T12:20:28.948Z,28.00
2018-12-06T12:22:57.336Z,29.12
2018-12-06T12:25:25.732Z,30.30
2018-12-06T12:27:54.130Z,28.00
2018-12-06T12:30:22.532Z,30.77
2018-12-06T12:32:50.943Z,29.77
2018-12-06T12:35:19.309Z,29.52
2018-12-06T12:37:47.692Z,30.77
2018-12-06T12:40:16.281Z,26.75
2018-12-06T12:42:44.641Z,28.40
2018-12-06T12:45:13.270Z,26.97
2018-12-06T12:47:41.648Z,26.70
2018-12-06T12:50:10.277Z,27.87
2018-12-06T12:52:38.626Z,27.85
2018-12-06T12:55:07.025Z,28.38
2018-12-06T12:57:35.392Z,29.72
2018-12-06T13:00:04.387Z,27.95
2018-12-06T13:02:32.795Z,28.92
2018-12-06T13:05:01.162Z,28.40
2018-12-06T13:07:29.625Z,28.83
2018-12-06T13:09:58.073Z,30.52
2018-12-06T13:12:26.453Z,27.82
2018-12-06T13:14:54.816Z,27.20
2018-12-06T13:17:23.297Z,27.25
2018-12-06T13:19:51.654Z,29.50
2018-12-06T13:22:20.004Z,28.12
2018-12-06T13:24:48.332Z,29.77
2018-12-06T13:27:16.753Z,28.20
2018-12-06T13:29:45.100Z,29.00
2018-12-06T13:32:13.569Z,28.60
2018-12-06T13:34:41.919Z,27.58
2018-12-06T13:37:10.294Z,30.55
2018-12-06T13:39:38.726Z,29.25
2018-12-06T13:42:07.306Z,29.37
2018-12-06T13:44:35.798Z,29.95
2018-12-06T13:47:04.420Z,27.98
2018-12-06T13:49:32.849Z,28.98
2018-12-06T13:52:09.730Z,28.83
2018-12-06T13:54:38.604Z,28.20
2018-12-06T13:57:07.443Z,27.73
2018-12-06T13:59:36.898Z,25.17
2018-12-06T14:02:05.666Z,26.33
2018-12-06T14:04:34.786Z,27.58
2018-12-06T14:07:03.630Z,26.45
2018-12-06T14:09:32.131Z,27.35
2018-12-06T14:12:00.731Z,28.20
2018-12-06T14:14:29.315Z,26.33
2018-12-06T14:16:57.910Z,26.80
2018-12-06T14:19:26.493Z,25.35
2018-12-06T14:21:55.214Z,28.00
2018-12-06T14:24:23.748Z,27.58
2018-12-06T14:26:52.250Z,25.12
2018-12-06T14:29:20.872Z,26.57
2018-12-06T14:31:49.622Z,25.60
2018-12-06T14:34:18.145Z,26.05
2018-12-06T14:36:46.585Z,26.70
2018-12-06T14:39:15.016Z,25.68
2018-12-06T14:41:43.393Z,25.00
2018-12-06T14:44:11.805Z,25.68
2018-12-06T14:46:40.209Z,26.33
2018-12-06T14:49:08.726Z,25.02
2018-12-06T14:51:37.112Z,25.77
2018-12-06T14:54:05.547Z,26.10
2018-12-06T14:56:33.952Z,26.50
2018-12-06T14:59:02.375Z,27.85
2018-12-06T15:01:30.779Z,26.27
2018-12-06T15:03:59.210Z,25.77
2018-12-06T15:06:27.719Z,25.15
2018-12-06T15:08:56.081Z,23.20
2018-12-06T15:11:24.495Z,23.22
2018-12-06T15:13:52.908Z,24.27
2018-12-06T15:16:21.347Z,24.87
2018-12-06T15:18:49.789Z,24.05
2018-12-06T15:21:18.177Z,23.95
2018-12-06T15:23:46.576Z,23.42
2018-12-06T15:26:15.060Z,22.82
2018-12-06T15:28:43.589Z,22.02
2018-12-06T15:31:12.020Z,23.85
2018-12-06T15:33:40.531Z,22.60
2018-12-06T15:36:08.921Z,22.48
2018-12-06T15:38:37.326Z,21.23
2018-12-06T15:41:05.881Z,19.80
2018-12-06T15:43:34.309Z,20.05
2018-12-06T15:46:02.733Z,19.55
2018-12-06T15:48:31.118Z,20.50
2018-12-06T15:50:59.520Z,20.65
2018-12-06T15:53:27.941Z,20.45
2018-12-06T15:55:57.336Z,19.57
2018-12-06T15:58:25.726Z,18.40
2018-12-06T16:00:54.067Z,20.88
2018-12-06T16:03:22.466Z,18.50
2018-12-06T16:05:50.941Z,21.00
2018-12-06T16:08:19.409Z,19.02
2018-12-06T16:10:48.206Z,22.62
2018-12-06T16:13:16.711Z,20.48
2018-12-06T16:15:45.091Z,19.30
2018-12-06T16:18:13.516Z,20.95
2018-12-06T16:20:41.859Z,18.23
2018-12-06T16:23:10.282Z,19.12
2018-12-06T16:25:38.641Z,19.30
2018-12-06T16:28:07.029Z,18.77
2018-12-06T16:30:35.421Z,17.73
2018-12-06T16:33:03.767Z,15.40
2018-12-06T16:35:32.267Z,17.17
2018-12-06T16:38:00.647Z,14.15
2018-12-06T16:40:29.092Z,15.28
2018-12-06T16:42:57.718Z,16.37
2018-12-06T16:45:26.138Z,14.87
2018-12-06T16:47:54.590Z,15.35
2018-12-06T16:50:22.954Z,14.18
2018-12-06T16:52:51.426Z,14.35
2018-12-06T16:55:19.933Z,13.53
2018-12-06T16:57:48.317Z,14.80
2018-12-06T17:00:16.693Z,14.25
2018-12-06T17:02:45.381Z,14.00
2018-12-06T17:05:13.779Z,13.65
2018-12-06T17:07:42.404Z,15.03
2018-12-06T17:10:11.399Z,13.65
2018-12-06T17:12:40.225Z,13.65
2018-12-06T17:15:08.865Z,13.45
2018-12-06T17:17:37.293Z,14.10
2018-12-06T17:20:06.939Z,12.40
2018-12-06T17:22:35.492Z,13.48
2018-12-06T17:25:04.360Z,14.23
2018-12-06T17:27:32.843Z,13.10
2018-12-06T17:30:01.715Z,11.63
2018-12-06T17:32:30.166Z,12.80
2018-12-06T17:34:58.820Z,12.70
2018-12-06T17:37:27.228Z,12.98
2018-12-06T17:39:55.911Z,12.65
2018-12-06T17:42:24.582Z,13.08
2018-12-06T17:44:52.979Z,13.70
2018-12-06T17:47:21.395Z,12.05
2018-12-06T17:49:50.097Z,14.75
2018-12-06T17:52:18.769Z,13.72
2018-12-06T17:54:47.252Z,13.25
2018-12-06T17:57:15.808Z,13.43
2018-12-06T17:59:44.436Z,12.33
2018-12-06T18:02:12.944Z,13.45
2018-12-06T18:04:41.468Z,12.53
2018-12-06T18:07:09.879Z,12.47
2018-12-06T18:09:38.262Z,12.25
2018-12-06T18:12:06.697Z,12.23
2018-12-06T18:14:35.089Z,13.15
2018-12-06T18:17:03.465Z,14.90
2018-12-06T18:19:31.846Z,13.15
2018-12-06T18:22:01.500Z,12.10
2018-12-06T18:24:29.907Z,12.50
2018-12-06T18:26:58.311Z,12.45
2018-12-06T18:29:26.731Z,12.95
2018-12-06T18:31:55.130Z,10.25
2018-12-06T18:34:23.538Z,11.45
2018-12-06T18:36:51.914Z,11.55
2018-12-06T18:39:20.439Z,10.82
2018-12-06T18:41:48.801Z,12.30
2018-12-06T18:44:17.286Z,11.40
2018-12-06T18:46:45.709Z,12.75
2018-12-06T18:49:14.252Z,11.22
2018-12-06T18:51:42.657Z,11.00
2018-12-06T18:54:11.162Z,10.98
2018-12-06T18:56:39.582Z,11.68
2018-12-06T18:59:08.313Z,11.95
2018-12-06T19:01:36.815Z,13.35
2018-12-06T19:04:05.183Z,12.80
2018-12-06T19:06:43.628Z,12.18
2018-12-06T19:09:12.509Z,12.03
2018-12-06T19:11:41.109Z,13.13
2018-12-06T19:14:09.658Z,13.00
2018-12-06T19:16:38.088Z,11.85
2018-12-06T19:19:06.551Z,12.50
2018-12-06T19:21:35.233Z,11.95
2018-12-06T19:24:04.191Z,12.55
2018-12-06T19:26:32.585Z,11.40
2018-12-06T19:29:01.142Z,11.07
2018-12-06T19:31:29.925Z,10.98
2018-12-06T19:33:58.412Z,11.80
2018-12-06T19:36:27.148Z,11.45
2018-12-06T19:38:55.929Z,10.10
2018-12-06T19:41:24.376Z,11.25
2018-12-06T19:43:52.737Z,11.90
2018-12-06T19:46:21.108Z,11.35
2018-12-06T19:48:49.812Z,11.00
2018-12-06T19:51:18.211Z,10.25
2018-12-06T19:53:47.027Z,11.08
2018-12-06T19:56:15.437Z,10.45
2018-12-06T19:58:44.179Z,10.60
2018-12-06T20:01:12.980Z,10.65
2018-12-06T20:03:41.427Z,10.80
2018-12-06T20:06:10.109Z,10.57
2018-12-06T20:08:38.620Z,10.20
2018-12-06T20:11:07.558Z,10.53
2018-12-06T20:13:36.020Z,9.90
2018-12-06T20:16:04.666Z,9.60
2018-12-06T20:18:33.388Z,9.63
2018-12-06T20:21:02.101Z,9.95
2018-12-06T20:23:31.485Z,11.25
2018-12-06T20:26:00.152Z,10.50
2018-12-06T20:28:28.645Z,9.65
2018-12-06T20:30:57.406Z,8.93
2018-12-06T20:33:25.825Z,8.28
2018-12-06T20:35:54.266Z,9.75
2018-12-06T20:38:22.650Z,9.00
2018-12-06T20:40:51.049Z,8.90
2018-12-06T20:43:19.449Z,8.75
2018-12-06T20:45:47.841Z,8.33
2018-12-06T20:48:16.248Z,8.73
2018-12-06T20:50:49.390Z,8.48
2018-12-06T20:53:15.169Z,8.77
2018-12-06T20:55:44.402Z,8.88
2018-12-06T20:58:15.090Z,7.87
2018-12-06T21:00:43.289Z,8.80
2018-12-06T21:03:11.680Z,8.30
2018-12-06T21:05:40.161Z,7.85
2018-12-06T21:08:08.683Z,8.77
2018-12-06T21:10:37.331Z,8.97
2018-12-06T21:13:05.805Z,8.98
2018-12-06T21:15:34.196Z,9.70
2018-12-06T21:18:02.655Z,9.28
2018-12-06T21:20:31.174Z,8.60
2018-12-06T21:22:59.584Z,9.27
2018-12-06T21:25:33.199Z,9.85
2018-12-06T21:28:02.409Z,9.98
2018-12-06T21:30:30.894Z,9.43
2018-12-06T21:32:59.253Z,9.13
2018-12-06T21:35:27.695Z,8.95
2018-12-06T21:37:56.101Z,8.87
2018-12-06T21:40:24.491Z,8.40
2018-12-06T21:42:52.820Z,8.10
2018-12-06T21:45:21.312Z,9.10
2018-12-06T21:47:49.756Z,8.40
2018-12-06T21:50:18.158Z,8.20
2018-12-06T21:52:46.552Z,7.80
2018-12-06T21:55:14.964Z,8.53
2018-12-06T21:57:43.405Z,8.43
2018-12-06T22:00:12.217Z,7.60
2018-12-06T22:02:40.639Z,7.53
2018-12-06T22:05:09.092Z,7.72
2018-12-06T22:07:37.477Z,7.70
2018-12-06T22:10:07.140Z,6.62
2018-12-06T22:12:35.534Z,6.10
2018-12-06T22:15:04.196Z,6.65
2018-12-06T22:17:32.601Z,6.67
2018-12-06T22:20:01.061Z,6.47
2018-12-06T22:22:30.004Z,6.40
2018-12-06T22:24:58.376Z,7.03
2018-12-06T22:27:26.807Z,6.45
2018-12-06T22:29:55.247Z,5.97
2018-12-06T22:32:23.690Z,6.70
2018-12-06T22:34:52.209Z,5.60
2018-12-06T22:37:20.622Z,6.07
2018-12-06T22:39:49.056Z,5.85
2018-12-06T22:42:17.443Z,5.43
2018-12-06T22:44:45.806Z,5.55
2018-12-06T22:47:14.199Z,6.00
2018-12-06T22:49:42.688Z,6.25
2018-12-06T22:52:11.108Z,5.20
2018-12-06T22:54:39.526Z,5.65
2018-12-06T22:57:07.894Z,5.47
2018-12-06T22:59:40.658Z,6.35
2018-12-06T23:02:09.037Z,5.70
2018-12-06T23:04:37.568Z,6.10
2018-12-06T23:07:06.001Z,7.20
2018-12-06T23:09:34.426Z,6.15
2018-12-06T23:12:02.848Z,7.03
2018-12-06T23:14:31.358Z,6.60
2018-12-06T23:16:59.698Z,6.50
2018-12-06T23:19:28.088Z,6.13
2018-12-06T23:21:56.482Z,6.50
2018-12-06T23:24:24.824Z,6.20
2018-12-06T23:26:53.452Z,5.65
2018-12-06T23:29:21.793Z,5.93
2018-12-06T23:31:50.165Z,6.20
2018-12-06T23:34:18.557Z,7.17
2018-12-06T23:36:46.918Z,6.50
2018-12-06T23:39:15.277Z,5.60
2018-12-06T23:41:43.660Z,7.13
2018-12-06T23:44:12.128Z,6.90
2018-12-06T23:46:40.489Z,5.80
2018-12-06T23:49:08.885Z,6.10
2018-12-06T23:51:38.779Z,5.47
2018-12-06T23:54:07.309Z,5.00
2018-12-06T23:56:35.711Z,4.33
2018-12-06T23:59:04.207Z,4.70
